sensor_id;sensor_type;location;lat;lon;timestamp;P1;durP1;ratioP1;P2;durP2;ratioP2
22268;SDS011;11303;50.772;19.670;2023-12-29T00:01:51;36.47;;;18.92;;
22268;SDS011;11303;50.772;19.670;2023-12-29T00:03:53;38.45;;;19.73;;
22268;SDS011;11303;50.772;19.670;2023-12-29T00:05:54;38.33;;;19.65;;
22268;SDS011;11303;50.772;19.670;2023-12-29T00:07:56;34.75;;;18.42;;
22268;SDS011;11303;50.772;19.670;2023-12-29T00:09:57;38.05;;;20.00;;
22268;SDS011;11303;50.772;19.670;2023-12-29T00:11:59;37.22;;;19.50;;
22268;SDS011;11303;50.772;19.670;2023-12-29T00:14:01;40.58;;;19.67;;
22268;SDS011;11303;50.772;19.670;2023-12-29T00:16:02;40.28;;;20.80;;
22268;SDS011;11303;50.772;19.670;2023-12-29T00:18:04;39.83;;;19.52;;
22268;SDS011;11303;50.772;19.670;2023-12-29T00:20:07;38.35;;;19.63;;
22268;SDS011;11303;50.772;19.670;2023-12-29T00:22:11;43.35;;;22.35;;
22268;SDS011;11303;50.772;19.670;2023-12-29T00:24:13;43.25;;;19.83;;
22268;SDS011;11303;50.772;19.670;2023-12-29T00:26:18;51.03;;;23.60;;
22268;SDS011;11303;50.772;19.670;2023-12-29T00:28:19;48.78;;;24.45;;
22268;SDS011;11303;50.772;19.670;2023-12-29T00:30:21;51.05;;;24.27;;
22268;SDS011;11303;50.772;19.670;2023-12-29T00:32:23;50.67;;;24.10;;
22268;SDS011;11303;50.772;19.670;2023-12-29T00:34:25;47.00;;;21.67;;
22268;SDS011;11303;50.772;19.670;2023-12-29T00:36:27;39.38;;;19.85;;
22268;SDS011;11303;50.772;19.670;2023-12-29T00:38:29;38.55;;;18.17;;
22268;SDS011;11303;50.772;19.670;2023-12-29T00:40:30;39.45;;;18.88;;
22268;SDS011;11303;50.772;19.670;2023-12-29T00:42:32;39.08;;;18.10;;
22268;SDS011;11303;50.772;19.670;2023-12-29T00:44:34;35.97;;;18.35;;
22268;SDS011;11303;50.772;19.670;2023-12-29T00:46:36;36.80;;;18.23;;
22268;SDS011;11303;50.772;19.670;2023-12-29T00:48:38;37.88;;;17.25;;
22268;SDS011;11303;50.772;19.670;2023-12-29T00:50:40;31.77;;;16.77;;
22268;SDS011;11303;50.772;19.670;2023-12-29T00:52:41;33.92;;;17.00;;
22268;SDS011;11303;50.772;19.670;2023-12-29T00:54:43;30.83;;;16.77;;
22268;SDS011;11303;50.772;19.670;2023-12-29T00:56:48;32.13;;;16.50;;
22268;SDS011;11303;50.772;19.670;2023-12-29T00:58:50;32.10;;;16.90;;
22268;SDS011;11303;50.772;19.670;2023-12-29T01:00:52;31.02;;;15.95;;
22268;SDS011;11303;50.772;19.670;2023-12-29T01:02:54;29.30;;;15.48;;
22268;SDS011;11303;50.772;19.670;2023-12-29T01:04:56;31.88;;;16.40;;
22268;SDS011;11303;50.772;19.670;2023-12-29T01:06:57;32.65;;;17.15;;
22268;SDS011;11303;50.772;19.670;2023-12-29T01:08:59;34.35;;;16.58;;
22268;SDS011;11303;50.772;19.670;2023-12-29T01:11:01;34.60;;;18.38;;
22268;SDS011;11303;50.772;19.670;2023-12-29T01:13:03;36.67;;;17.42;;
22268;SDS011;11303;50.772;19.670;2023-12-29T01:15:05;36.10;;;17.40;;
22268;SDS011;11303;50.772;19.670;2023-12-29T01:17:07;33.55;;;16.08;;
22268;SDS011;11303;50.772;19.670;2023-12-29T01:19:09;28.27;;;14.95;;
22268;SDS011;11303;50.772;19.670;2023-12-29T01:21:11;29.70;;;14.82;;
22268;SDS011;11303;50.772;19.670;2023-12-29T01:23:12;25.92;;;13.65;;
22268;SDS011;11303;50.772;19.670;2023-12-29T01:25:14;28.15;;;14.60;;
22268;SDS011;11303;50.772;19.670;2023-12-29T01:27:16;25.55;;;13.40;;
22268;SDS011;11303;50.772;19.670;2023-12-29T01:29:17;30.88;;;14.57;;
22268;SDS011;11303;50.772;19.670;2023-12-29T01:31:19;29.08;;;14.60;;
22268;SDS011;11303;50.772;19.670;2023-12-29T01:33:21;26.08;;;14.45;;
22268;SDS011;11303;50.772;19.670;2023-12-29T01:35:23;27.13;;;14.07;;
22268;SDS011;11303;50.772;19.670;2023-12-29T01:37:24;25.77;;;13.82;;
22268;SDS011;11303;50.772;19.670;2023-12-29T01:39:26;26.90;;;13.77;;
22268;SDS011;11303;50.772;19.670;2023-12-29T01:41:27;26.52;;;14.30;;
22268;SDS011;11303;50.772;19.670;2023-12-29T01:43:29;29.20;;;14.77;;
22268;SDS011;11303;50.772;19.670;2023-12-29T01:45:31;22.80;;;13.35;;
22268;SDS011;11303;50.772;19.670;2023-12-29T01:47:35;29.08;;;14.25;;
22268;SDS011;11303;50.772;19.670;2023-12-29T01:49:38;26.60;;;14.00;;
22268;SDS011;11303;50.772;19.670;2023-12-29T01:51:40;27.50;;;14.07;;
22268;SDS011;11303;50.772;19.670;2023-12-29T01:53:43;26.15;;;13.90;;
22268;SDS011;11303;50.772;19.670;2023-12-29T01:55:49;26.23;;;13.50;;
22268;SDS011;11303;50.772;19.670;2023-12-29T01:57:50;23.77;;;13.65;;
22268;SDS011;11303;50.772;19.670;2023-12-29T01:59:52;24.02;;;13.50;;
22268;SDS011;11303;50.772;19.670;2023-12-29T02:01:54;26.10;;;15.02;;
22268;SDS011;11303;50.772;19.670;2023-12-29T02:03:59;27.50;;;13.82;;
22268;SDS011;11303;50.772;19.670;2023-12-29T02:06:01;26.38;;;13.82;;
22268;SDS011;11303;50.772;19.670;2023-12-29T02:08:03;25.92;;;14.40;;
22268;SDS011;11303;50.772;19.670;2023-12-29T02:10:08;30.13;;;15.18;;
22268;SDS011;11303;50.772;19.670;2023-12-29T02:12:11;27.58;;;15.35;;
22268;SDS011;11303;50.772;19.670;2023-12-29T02:14:13;27.83;;;14.57;;
22268;SDS011;11303;50.772;19.670;2023-12-29T02:16:22;30.48;;;15.18;;
22268;SDS011;11303;50.772;19.670;2023-12-29T02:18:27;43.05;;;14.50;;
22268;SDS011;11303;50.772;19.670;2023-12-29T02:20:32;32.47;;;15.10;;
22268;SDS011;11303;50.772;19.670;2023-12-29T02:22:34;29.23;;;16.25;;
22268;SDS011;11303;50.772;19.670;2023-12-29T02:24:37;33.58;;;15.68;;
22268;SDS011;11303;50.772;19.670;2023-12-29T02:26:39;31.02;;;16.90;;
22268;SDS011;11303;50.772;19.670;2023-12-29T02:28:51;26.77;;;17.10;;
22268;SDS011;11303;50.772;19.670;2023-12-29T02:31:00;31.55;;;17.40;;
22268;SDS011;11303;50.772;19.670;2023-12-29T02:33:10;31.88;;;17.70;;
22268;SDS011;11303;50.772;19.670;2023-12-29T02:35:20;31.38;;;16.45;;
22268;SDS011;11303;50.772;19.670;2023-12-29T02:37:27;37.27;;;19.17;;
22268;SDS011;11303;50.772;19.670;2023-12-29T02:39:30;35.80;;;20.15;;
22268;SDS011;11303;50.772;19.670;2023-12-29T02:41:32;34.00;;;18.95;;
22268;SDS011;11303;50.772;19.670;2023-12-29T02:43:34;34.30;;;19.90;;
22268;SDS011;11303;50.772;19.670;2023-12-29T02:45:36;34.22;;;19.95;;
22268;SDS011;11303;50.772;19.670;2023-12-29T02:47:37;40.20;;;21.00;;
22268;SDS011;11303;50.772;19.670;2023-12-29T02:49:39;38.30;;;19.90;;
22268;SDS011;11303;50.772;19.670;2023-12-29T02:51:41;41.92;;;20.25;;
22268;SDS011;11303;50.772;19.670;2023-12-29T02:53:42;44.33;;;22.20;;
22268;SDS011;11303;50.772;19.670;2023-12-29T02:55:44;46.97;;;22.08;;
22268;SDS011;11303;50.772;19.670;2023-12-29T02:57:46;43.13;;;21.10;;
22268;SDS011;11303;50.772;19.670;2023-12-29T02:59:47;44.75;;;20.50;;
22268;SDS011;11303;50.772;19.670;2023-12-29T03:01:49;39.13;;;20.02;;
22268;SDS011;11303;50.772;19.670;2023-12-29T03:03:51;46.40;;;21.15;;
22268;SDS011;11303;50.772;19.670;2023-12-29T03:05:52;35.85;;;18.77;;
22268;SDS011;11303;50.772;19.670;2023-12-29T03:07:54;38.53;;;19.17;;
22268;SDS011;11303;50.772;19.670;2023-12-29T03:09:56;33.65;;;18.02;;
22268;SDS011;11303;50.772;19.670;2023-12-29T03:11:57;36.58;;;19.58;;
22268;SDS011;11303;50.772;19.670;2023-12-29T03:13:59;32.35;;;17.05;;
22268;SDS011;11303;50.772;19.670;2023-12-29T03:16:01;35.80;;;18.42;;
22268;SDS011;11303;50.772;19.670;2023-12-29T03:18:03;33.55;;;18.48;;
22268;SDS011;11303;50.772;19.670;2023-12-29T03:20:05;33.80;;;17.92;;
22268;SDS011;11303;50.772;19.670;2023-12-29T03:22:09;33.78;;;17.08;;
22268;SDS011;11303;50.772;19.670;2023-12-29T03:24:11;26.52;;;16.23;;
22268;SDS011;11303;50.772;19.670;2023-12-29T03:26:12;29.98;;;17.55;;
22268;SDS011;11303;50.772;19.670;2023-12-29T03:28:14;35.80;;;18.35;;
22268;SDS011;11303;50.772;19.670;2023-12-29T03:30:16;31.77;;;16.92;;
22268;SDS011;11303;50.772;19.670;2023-12-29T03:32:18;28.48;;;16.83;;
22268;SDS011;11303;50.772;19.670;2023-12-29T03:34:20;31.05;;;17.08;;
22268;SDS011;11303;50.772;19.670;2023-12-29T03:36:22;32.22;;;18.10;;
22268;SDS011;11303;50.772;19.670;2023-12-29T03:38:23;27.58;;;15.40;;
22268;SDS011;11303;50.772;19.670;2023-12-29T03:40:25;32.47;;;17.17;;
22268;SDS011;11303;50.772;19.670;2023-12-29T03:42:27;32.03;;;16.70;;
22268;SDS011;11303;50.772;19.670;2023-12-29T03:44:28;33.88;;;17.42;;
22268;SDS011;11303;50.772;19.670;2023-12-29T03:46:30;33.25;;;17.70;;
22268;SDS011;11303;50.772;19.670;2023-12-29T03:48:32;37.03;;;18.77;;
22268;SDS011;11303;50.772;19.670;2023-12-29T03:50:35;36.45;;;18.30;;
22268;SDS011;11303;50.772;19.670;2023-12-29T03:52:37;33.17;;;19.27;;
22268;SDS011;11303;50.772;19.670;2023-12-29T03:54:38;32.90;;;17.35;;
22268;SDS011;11303;50.772;19.670;2023-12-29T03:56:40;38.15;;;19.00;;
22268;SDS011;11303;50.772;19.670;2023-12-29T03:58:45;41.95;;;21.20;;
22268;SDS011;11303;50.772;19.670;2023-12-29T04:00:47;39.88;;;21.45;;
22268;SDS011;11303;50.772;19.670;2023-12-29T04:02:49;41.70;;;22.40;;
22268;SDS011;11303;50.772;19.670;2023-12-29T04:04:51;43.22;;;24.95;;
22268;SDS011;11303;50.772;19.670;2023-12-29T04:06:52;42.10;;;23.63;;
22268;SDS011;11303;50.772;19.670;2023-12-29T04:08:54;42.97;;;23.88;;
22268;SDS011;11303;50.772;19.670;2023-12-29T04:10:56;52.92;;;26.95;;
22268;SDS011;11303;50.772;19.670;2023-12-29T04:12:58;51.75;;;28.58;;
22268;SDS011;11303;50.772;19.670;2023-12-29T04:14:59;56.85;;;28.58;;
22268;SDS011;11303;50.772;19.670;2023-12-29T04:17:01;41.72;;;23.63;;
22268;SDS011;11303;50.772;19.670;2023-12-29T04:19:05;43.47;;;24.83;;
22268;SDS011;11303;50.772;19.670;2023-12-29T04:21:07;41.80;;;24.27;;
22268;SDS011;11303;50.772;19.670;2023-12-29T04:23:10;40.70;;;23.42;;
22268;SDS011;11303;50.772;19.670;2023-12-29T04:25:13;44.60;;;22.17;;
22268;SDS011;11303;50.772;19.670;2023-12-29T04:27:15;42.28;;;22.52;;
22268;SDS011;11303;50.772;19.670;2023-12-29T04:29:17;71.68;;;35.80;;
22268;SDS011;11303;50.772;19.670;2023-12-29T04:31:18;86.65;;;41.08;;
22268;SDS011;11303;50.772;19.670;2023-12-29T04:33:20;97.15;;;42.38;;
22268;SDS011;11303;50.772;19.670;2023-12-29T04:35:22;89.40;;;40.38;;
22268;SDS011;11303;50.772;19.670;2023-12-29T04:37:23;93.32;;;42.58;;
22268;SDS011;11303;50.772;19.670;2023-12-29T04:39:25;84.68;;;38.75;;
22268;SDS011;11303;50.772;19.670;2023-12-29T04:41:27;60.45;;;29.50;;
22268;SDS011;11303;50.772;19.670;2023-12-29T04:43:29;68.93;;;33.22;;
22268;SDS011;11303;50.772;19.670;2023-12-29T04:45:30;74.10;;;36.72;;
22268;SDS011;11303;50.772;19.670;2023-12-29T04:47:32;59.25;;;31.25;;
22268;SDS011;11303;50.772;19.670;2023-12-29T04:49:34;60.97;;;31.77;;
22268;SDS011;11303;50.772;19.670;2023-12-29T04:51:36;43.50;;;23.13;;
22268;SDS011;11303;50.772;19.670;2023-12-29T04:53:38;41.60;;;23.55;;
22268;SDS011;11303;50.772;19.670;2023-12-29T04:55:39;47.22;;;23.50;;
22268;SDS011;11303;50.772;19.670;2023-12-29T04:57:41;49.88;;;24.05;;
22268;SDS011;11303;50.772;19.670;2023-12-29T04:59:43;42.70;;;21.98;;
22268;SDS011;11303;50.772;19.670;2023-12-29T05:01:44;34.03;;;19.08;;
22268;SDS011;11303;50.772;19.670;2023-12-29T05:03:46;33.83;;;18.75;;
22268;SDS011;11303;50.772;19.670;2023-12-29T05:05:48;40.90;;;20.58;;
22268;SDS011;11303;50.772;19.670;2023-12-29T05:07:50;37.63;;;21.15;;
22268;SDS011;11303;50.772;19.670;2023-12-29T05:09:51;39.30;;;19.95;;
22268;SDS011;11303;50.772;19.670;2023-12-29T05:11:53;43.63;;;22.95;;
22268;SDS011;11303;50.772;19.670;2023-12-29T05:13:55;55.03;;;27.10;;
22268;SDS011;11303;50.772;19.670;2023-12-29T05:15:56;52.08;;;29.60;;
22268;SDS011;11303;50.772;19.670;2023-12-29T05:17:58;44.03;;;26.45;;
22268;SDS011;11303;50.772;19.670;2023-12-29T05:20:00;39.35;;;22.08;;
22268;SDS011;11303;50.772;19.670;2023-12-29T05:22:02;36.83;;;21.80;;
22268;SDS011;11303;50.772;19.670;2023-12-29T05:24:04;36.20;;;20.52;;
22268;SDS011;11303;50.772;19.670;2023-12-29T05:26:07;33.17;;;19.25;;
22268;SDS011;11303;50.772;19.670;2023-12-29T05:28:09;37.95;;;21.17;;
22268;SDS011;11303;50.772;19.670;2023-12-29T05:30:10;43.83;;;22.15;;
22268;SDS011;11303;50.772;19.670;2023-12-29T05:32:13;35.20;;;20.38;;
22268;SDS011;11303;50.772;19.670;2023-12-29T05:34:14;33.63;;;16.60;;
22268;SDS011;11303;50.772;19.670;2023-12-29T05:36:16;31.33;;;17.23;;
22268;SDS011;11303;50.772;19.670;2023-12-29T05:38:18;29.55;;;18.58;;
22268;SDS011;11303;50.772;19.670;2023-12-29T05:40:20;35.63;;;19.65;;
22268;SDS011;11303;50.772;19.670;2023-12-29T05:42:21;27.42;;;16.55;;
22268;SDS011;11303;50.772;19.670;2023-12-29T05:44:23;28.90;;;15.77;;
22268;SDS011;11303;50.772;19.670;2023-12-29T05:46:25;24.38;;;14.85;;
22268;SDS011;11303;50.772;19.670;2023-12-29T05:48:26;23.40;;;14.70;;
22268;SDS011;11303;50.772;19.670;2023-12-29T05:50:28;22.55;;;14.05;;
22268;SDS011;11303;50.772;19.670;2023-12-29T05:52:30;27.83;;;14.30;;
22268;SDS011;11303;50.772;19.670;2023-12-29T05:54:32;26.73;;;13.77;;
22268;SDS011;11303;50.772;19.670;2023-12-29T05:56:33;21.17;;;13.55;;
22268;SDS011;11303;50.772;19.670;2023-12-29T05:58:35;22.40;;;13.23;;
22268;SDS011;11303;50.772;19.670;2023-12-29T06:00:37;22.30;;;12.68;;
22268;SDS011;11303;50.772;19.670;2023-12-29T06:02:38;22.08;;;12.90;;
22268;SDS011;11303;50.772;19.670;2023-12-29T06:04:40;24.77;;;13.23;;
22268;SDS011;11303;50.772;19.670;2023-12-29T06:06:42;20.05;;;11.95;;
22268;SDS011;11303;50.772;19.670;2023-12-29T06:08:44;21.27;;;11.50;;
22268;SDS011;11303;50.772;19.670;2023-12-29T06:10:45;18.50;;;12.00;;
22268;SDS011;11303;50.772;19.670;2023-12-29T06:12:47;21.45;;;11.95;;
22268;SDS011;11303;50.772;19.670;2023-12-29T06:14:49;16.52;;;10.32;;
22268;SDS011;11303;50.772;19.670;2023-12-29T06:16:52;17.80;;;11.38;;
22268;SDS011;11303;50.772;19.670;2023-12-29T06:18:54;15.07;;;9.88;;
22268;SDS011;11303;50.772;19.670;2023-12-29T06:20:55;20.73;;;11.02;;
22268;SDS011;11303;50.772;19.670;2023-12-29T06:22:57;17.48;;;9.85;;
22268;SDS011;11303;50.772;19.670;2023-12-29T06:25:00;17.80;;;10.25;;
22268;SDS011;11303;50.772;19.670;2023-12-29T06:27:02;20.60;;;11.48;;
22268;SDS011;11303;50.772;19.670;2023-12-29T06:29:04;20.98;;;11.05;;
22268;SDS011;11303;50.772;19.670;2023-12-29T06:31:06;19.05;;;10.07;;
22268;SDS011;11303;50.772;19.670;2023-12-29T06:33:08;19.00;;;10.88;;
22268;SDS011;11303;50.772;19.670;2023-12-29T06:35:10;15.82;;;10.57;;
22268;SDS011;11303;50.772;19.670;2023-12-29T06:37:11;19.20;;;11.40;;
22268;SDS011;11303;50.772;19.670;2023-12-29T06:39:13;22.10;;;12.80;;
22268;SDS011;11303;50.772;19.670;2023-12-29T06:41:15;28.45;;;15.82;;
22268;SDS011;11303;50.772;19.670;2023-12-29T06:43:16;25.50;;;14.98;;
22268;SDS011;11303;50.772;19.670;2023-12-29T06:45:18;18.48;;;12.40;;
22268;SDS011;11303;50.772;19.670;2023-12-29T06:47:20;21.45;;;12.05;;
22268;SDS011;11303;50.772;19.670;2023-12-29T06:49:21;15.80;;;10.25;;
22268;SDS011;11303;50.772;19.670;2023-12-29T06:51:23;19.13;;;11.35;;
22268;SDS011;11303;50.772;19.670;2023-12-29T06:53:25;15.57;;;10.52;;
22268;SDS011;11303;50.772;19.670;2023-12-29T06:55:26;18.45;;;10.63;;
22268;SDS011;11303;50.772;19.670;2023-12-29T06:57:28;18.25;;;11.63;;
22268;SDS011;11303;50.772;19.670;2023-12-29T06:59:30;20.10;;;12.43;;
22268;SDS011;11303;50.772;19.670;2023-12-29T07:01:32;24.15;;;13.77;;
22268;SDS011;11303;50.772;19.670;2023-12-29T07:03:34;20.15;;;12.77;;
22268;SDS011;11303;50.772;19.670;2023-12-29T07:05:35;23.15;;;13.32;;
22268;SDS011;11303;50.772;19.670;2023-12-29T07:07:37;27.58;;;15.55;;
22268;SDS011;11303;50.772;19.670;2023-12-29T07:09:39;29.83;;;16.52;;
22268;SDS011;11303;50.772;19.670;2023-12-29T07:11:47;27.75;;;14.75;;
22268;SDS011;11303;50.772;19.670;2023-12-29T07:13:50;28.95;;;15.57;;
22268;SDS011;11303;50.772;19.670;2023-12-29T07:15:51;26.88;;;13.63;;
22268;SDS011;11303;50.772;19.670;2023-12-29T07:17:53;24.17;;;12.80;;
22268;SDS011;11303;50.772;19.670;2023-12-29T07:19:55;23.95;;;12.63;;
22268;SDS011;11303;50.772;19.670;2023-12-29T07:21:57;24.90;;;13.38;;
22268;SDS011;11303;50.772;19.670;2023-12-29T07:23:59;23.38;;;12.30;;
22268;SDS011;11303;50.772;19.670;2023-12-29T07:26:01;24.08;;;14.15;;
22268;SDS011;11303;50.772;19.670;2023-12-29T07:28:02;23.13;;;12.98;;
22268;SDS011;11303;50.772;19.670;2023-12-29T07:30:04;17.92;;;10.65;;
22268;SDS011;11303;50.772;19.670;2023-12-29T07:32:07;19.65;;;12.43;;
22268;SDS011;11303;50.772;19.670;2023-12-29T07:34:09;19.45;;;10.85;;
22268;SDS011;11303;50.772;19.670;2023-12-29T07:36:10;15.85;;;10.45;;
22268;SDS011;11303;50.772;19.670;2023-12-29T07:38:14;28.48;;;16.65;;
22268;SDS011;11303;50.772;19.670;2023-12-29T07:40:16;53.72;;;23.15;;
22268;SDS011;11303;50.772;19.670;2023-12-29T07:42:18;37.92;;;15.25;;
22268;SDS011;11303;50.772;19.670;2023-12-29T07:44:20;43.80;;;16.45;;
22268;SDS011;11303;50.772;19.670;2023-12-29T07:46:25;17.08;;;10.98;;
22268;SDS011;11303;50.772;19.670;2023-12-29T07:48:30;21.52;;;15.50;;
22268;SDS011;11303;50.772;19.670;2023-12-29T07:50:32;27.25;;;14.05;;
22268;SDS011;11303;50.772;19.670;2023-12-29T07:52:34;36.47;;;14.05;;
22268;SDS011;11303;50.772;19.670;2023-12-29T07:54:35;17.58;;;8.90;;
22268;SDS011;11303;50.772;19.670;2023-12-29T07:56:37;26.73;;;12.88;;
22268;SDS011;11303;50.772;19.670;2023-12-29T07:58:39;28.58;;;13.73;;
22268;SDS011;11303;50.772;19.670;2023-12-29T08:00:42;18.00;;;10.35;;
22268;SDS011;11303;50.772;19.670;2023-12-29T08:02:43;18.88;;;9.73;;
22268;SDS011;11303;50.772;19.670;2023-12-29T08:04:46;15.13;;;10.32;;
22268;SDS011;11303;50.772;19.670;2023-12-29T08:06:49;13.82;;;8.45;;
22268;SDS011;11303;50.772;19.670;2023-12-29T08:08:51;24.38;;;10.88;;
22268;SDS011;11303;50.772;19.670;2023-12-29T08:10:53;15.10;;;8.70;;
22268;SDS011;11303;50.772;19.670;2023-12-29T08:12:54;12.48;;;7.35;;
22268;SDS011;11303;50.772;19.670;2023-12-29T08:14:56;12.38;;;6.88;;
22268;SDS011;11303;50.772;19.670;2023-12-29T08:16:58;12.82;;;7.05;;
22268;SDS011;11303;50.772;19.670;2023-12-29T08:18:59;12.88;;;7.20;;
22268;SDS011;11303;50.772;19.670;2023-12-29T08:21:02;11.88;;;6.90;;
22268;SDS011;11303;50.772;19.670;2023-12-29T08:23:03;13.98;;;7.35;;
22268;SDS011;11303;50.772;19.670;2023-12-29T08:25:05;14.10;;;7.43;;
22268;SDS011;11303;50.772;19.670;2023-12-29T08:27:07;14.32;;;7.68;;
22268;SDS011;11303;50.772;19.670;2023-12-29T08:29:09;16.80;;;8.05;;
22268;SDS011;11303;50.772;19.670;2023-12-29T08:31:10;12.57;;;7.50;;
22268;SDS011;11303;50.772;19.670;2023-12-29T08:33:12;13.55;;;7.90;;
22268;SDS011;11303;50.772;19.670;2023-12-29T08:35:14;12.88;;;7.45;;
22268;SDS011;11303;50.772;19.670;2023-12-29T08:37:16;15.18;;;9.05;;
22268;SDS011;11303;50.772;19.670;2023-12-29T08:39:22;11.52;;;8.02;;
22268;SDS011;11303;50.772;19.670;2023-12-29T08:41:24;18.45;;;9.50;;
22268;SDS011;11303;50.772;19.670;2023-12-29T08:43:25;21.83;;;12.65;;
22268;SDS011;11303;50.772;19.670;2023-12-29T08:45:27;30.27;;;15.48;;
22268;SDS011;11303;50.772;19.670;2023-12-29T08:47:29;38.78;;;22.15;;
22268;SDS011;11303;50.772;19.670;2023-12-29T08:49:31;27.05;;;15.68;;
22268;SDS011;11303;50.772;19.670;2023-12-29T08:51:33;20.42;;;11.55;;
22268;SDS011;11303;50.772;19.670;2023-12-29T08:53:35;20.70;;;12.27;;
22268;SDS011;11303;50.772;19.670;2023-12-29T08:55:37;19.45;;;10.82;;
22268;SDS011;11303;50.772;19.670;2023-12-29T08:57:38;16.10;;;10.38;;
22268;SDS011;11303;50.772;19.670;2023-12-29T08:59:40;17.02;;;10.32;;
22268;SDS011;11303;50.772;19.670;2023-12-29T09:01:42;16.38;;;8.65;;
22268;SDS011;11303;50.772;19.670;2023-12-29T09:03:43;14.57;;;8.45;;
22268;SDS011;11303;50.772;19.670;2023-12-29T09:05:45;14.85;;;8.40;;
22268;SDS011;11303;50.772;19.670;2023-12-29T09:07:47;15.90;;;8.43;;
22268;SDS011;11303;50.772;19.670;2023-12-29T09:09:49;16.15;;;8.68;;
22268;SDS011;11303;50.772;19.670;2023-12-29T09:11:50;16.45;;;9.02;;
22268;SDS011;11303;50.772;19.670;2023-12-29T09:13:52;17.02;;;8.98;;
22268;SDS011;11303;50.772;19.670;2023-12-29T09:15:54;15.02;;;7.57;;
22268;SDS011;11303;50.772;19.670;2023-12-29T09:17:56;15.98;;;8.15;;
22268;SDS011;11303;50.772;19.670;2023-12-29T09:19:58;12.00;;;7.25;;
22268;SDS011;11303;50.772;19.670;2023-12-29T09:22:10;12.02;;;7.00;;
22268;SDS011;11303;50.772;19.670;2023-12-29T09:24:12;12.88;;;7.75;;
22268;SDS011;11303;50.772;19.670;2023-12-29T09:26:13;13.15;;;7.28;;
22268;SDS011;11303;50.772;19.670;2023-12-29T09:28:15;15.20;;;7.38;;
22268;SDS011;11303;50.772;19.670;2023-12-29T09:30:16;13.52;;;7.18;;
22268;SDS011;11303;50.772;19.670;2023-12-29T09:32:18;13.57;;;6.80;;
22268;SDS011;11303;50.772;19.670;2023-12-29T09:34:20;12.10;;;6.82;;
22268;SDS011;11303;50.772;19.670;2023-12-29T09:36:22;11.27;;;6.90;;
22268;SDS011;11303;50.772;19.670;2023-12-29T09:38:24;14.93;;;7.25;;
22268;SDS011;11303;50.772;19.670;2023-12-29T09:40:25;13.07;;;7.45;;
22268;SDS011;11303;50.772;19.670;2023-12-29T09:42:28;13.85;;;6.55;;
22268;SDS011;11303;50.772;19.670;2023-12-29T09:44:31;13.18;;;6.85;;
22268;SDS011;11303;50.772;19.670;2023-12-29T09:46:33;15.77;;;7.90;;
22268;SDS011;11303;50.772;19.670;2023-12-29T09:48:36;12.40;;;6.78;;
22268;SDS011;11303;50.772;19.670;2023-12-29T09:50:38;10.07;;;6.45;;
22268;SDS011;11303;50.772;19.670;2023-12-29T09:52:41;11.07;;;5.95;;
22268;SDS011;11303;50.772;19.670;2023-12-29T09:54:44;13.25;;;6.13;;
22268;SDS011;11303;50.772;19.670;2023-12-29T09:56:46;11.30;;;6.07;;
22268;SDS011;11303;50.772;19.670;2023-12-29T09:58:50;11.27;;;6.13;;
22268;SDS011;11303;50.772;19.670;2023-12-29T10:00:53;12.00;;;5.40;;
22268;SDS011;11303;50.772;19.670;2023-12-29T10:02:55;8.95;;;5.82;;
22268;SDS011;11303;50.772;19.670;2023-12-29T10:04:59;10.80;;;6.13;;
22268;SDS011;11303;50.772;19.670;2023-12-29T10:07:04;10.43;;;6.07;;
22268;SDS011;11303;50.772;19.670;2023-12-29T10:09:10;8.63;;;5.30;;
22268;SDS011;11303;50.772;19.670;2023-12-29T10:11:13;12.13;;;6.30;;
22268;SDS011;11303;50.772;19.670;2023-12-29T10:13:19;14.52;;;6.47;;
22268;SDS011;11303;50.772;19.670;2023-12-29T10:15:29;11.07;;;5.97;;
22268;SDS011;11303;50.772;19.670;2023-12-29T10:20:45;9.38;;;5.65;;
22268;SDS011;11303;50.772;19.670;2023-12-29T10:25:08;11.65;;;5.82;;
22268;SDS011;11303;50.772;19.670;2023-12-29T10:27:11;10.52;;;5.90;;
22268;SDS011;11303;50.772;19.670;2023-12-29T10:29:13;9.48;;;5.47;;
22268;SDS011;11303;50.772;19.670;2023-12-29T10:31:18;11.20;;;6.20;;
22268;SDS011;11303;50.772;19.670;2023-12-29T10:33:20;8.90;;;5.15;;
22268;SDS011;11303;50.772;19.670;2023-12-29T10:35:30;12.38;;;5.70;;
22268;SDS011;11303;50.772;19.670;2023-12-29T10:37:34;10.00;;;5.63;;
22268;SDS011;11303;50.772;19.670;2023-12-29T10:39:36;9.98;;;5.68;;
22268;SDS011;11303;50.772;19.670;2023-12-29T10:41:38;7.72;;;4.82;;
22268;SDS011;11303;50.772;19.670;2023-12-29T10:43:40;15.50;;;6.35;;
22268;SDS011;11303;50.772;19.670;2023-12-29T10:45:43;10.23;;;5.97;;
22268;SDS011;11303;50.772;19.670;2023-12-29T10:47:45;12.02;;;7.05;;
22268;SDS011;11303;50.772;19.670;2023-12-29T10:49:47;11.13;;;6.18;;
22268;SDS011;11303;50.772;19.670;2023-12-29T10:51:49;11.68;;;6.03;;
22268;SDS011;11303;50.772;19.670;2023-12-29T10:53:54;11.20;;;6.13;;
22268;SDS011;11303;50.772;19.670;2023-12-29T10:55:58;9.95;;;6.45;;
22268;SDS011;11303;50.772;19.670;2023-12-29T10:58:00;10.20;;;5.30;;
22268;SDS011;11303;50.772;19.670;2023-12-29T11:00:02;11.13;;;6.78;;
22268;SDS011;11303;50.772;19.670;2023-12-29T11:02:11;14.85;;;7.80;;
22268;SDS011;11303;50.772;19.670;2023-12-29T11:04:16;15.05;;;7.88;;
22268;SDS011;11303;50.772;19.670;2023-12-29T11:06:26;16.42;;;7.38;;
22268;SDS011;11303;50.772;19.670;2023-12-29T11:08:30;16.13;;;8.23;;
22268;SDS011;11303;50.772;19.670;2023-12-29T11:10:36;13.20;;;6.55;;
22268;SDS011;11303;50.772;19.670;2023-12-29T11:12:38;9.52;;;5.82;;
22268;SDS011;11303;50.772;19.670;2023-12-29T11:14:41;11.18;;;6.38;;
22268;SDS011;11303;50.772;19.670;2023-12-29T11:16:46;17.02;;;7.22;;
22268;SDS011;11303;50.772;19.670;2023-12-29T11:18:49;9.88;;;5.75;;
22268;SDS011;11303;50.772;19.670;2023-12-29T11:20:52;10.40;;;5.38;;
22268;SDS011;11303;50.772;19.670;2023-12-29T11:22:54;9.25;;;5.38;;
22268;SDS011;11303;50.772;19.670;2023-12-29T11:24:56;9.65;;;5.30;;
22268;SDS011;11303;50.772;19.670;2023-12-29T11:27:02;8.80;;;4.82;;
22268;SDS011;11303;50.772;19.670;2023-12-29T11:29:05;8.48;;;4.90;;
22268;SDS011;11303;50.772;19.670;2023-12-29T11:31:09;11.73;;;5.72;;
22268;SDS011;11303;50.772;19.670;2023-12-29T11:33:18;24.20;;;11.40;;
22268;SDS011;11303;50.772;19.670;2023-12-29T11:35:26;18.75;;;8.52;;
22268;SDS011;11303;50.772;19.670;2023-12-29T11:39:42;12.40;;;6.50;;
22268;SDS011;11303;50.772;19.670;2023-12-29T11:42:36;14.02;;;6.90;;
22268;SDS011;11303;50.772;19.670;2023-12-29T11:44:25;12.48;;;6.10;;
22268;SDS011;11303;50.772;19.670;2023-12-29T11:46:43;12.85;;;5.65;;
22268;SDS011;11303;50.772;19.670;2023-12-29T11:48:55;9.45;;;5.80;;
22268;SDS011;11303;50.772;19.670;2023-12-29T11:53:32;11.63;;;5.45;;
22268;SDS011;11303;50.772;19.670;2023-12-29T11:55:38;8.82;;;5.32;;
22268;SDS011;11303;50.772;19.670;2023-12-29T11:57:40;11.80;;;5.57;;
22268;SDS011;11303;50.772;19.670;2023-12-29T11:59:49;11.90;;;5.05;;
22268;SDS011;11303;50.772;19.670;2023-12-29T12:01:51;10.52;;;4.78;;